sensor_id;sensor_type;location;lat;lon;timestamp;P1;durP1;ratioP1;P2;durP2;ratioP2
56718;SDS011;42597;40.636;0.278;2023-10-19T00:00:36;1.50;;;0.60;;
56718;SDS011;42597;40.636;0.278;2023-10-19T00:03:09;0.63;;;0.50;;
56718;SDS011;42597;40.636;0.278;2023-10-19T00:05:36;1.13;;;0.60;;
56718;SDS011;42597;40.636;0.278;2023-10-19T00:08:03;0.50;;;0.40;;
56718;SDS011;42597;40.636;0.278;2023-10-19T00:10:40;1.20;;;0.65;;
56718;SDS011;42597;40.636;0.278;2023-10-19T00:13:13;0.95;;;0.50;;
56718;SDS011;42597;40.636;0.278;2023-10-19T00:15:39;1.55;;;0.60;;
56718;SDS011;42597;40.636;0.278;2023-10-19T00:18:12;0.22;;;0.20;;
56718;SDS011;42597;40.636;0.278;2023-10-19T00:20:41;0.35;;;0.35;;
56718;SDS011;42597;40.636;0.278;2023-10-19T00:23:10;1.02;;;0.38;;
56718;SDS011;42597;40.636;0.278;2023-10-19T00:25:38;0.70;;;0.47;;
56718;SDS011;42597;40.636;0.278;2023-10-19T00:28:06;1.47;;;0.47;;
56718;SDS011;42597;40.636;0.278;2023-10-19T00:30:33;3.00;;;1.02;;
56718;SDS011;42597;40.636;0.278;2023-10-19T00:33:01;1.60;;;0.40;;
56718;SDS011;42597;40.636;0.278;2023-10-19T00:35:40;0.32;;;0.25;;
56718;SDS011;42597;40.636;0.278;2023-10-19T00:38:12;0.60;;;0.43;;
56718;SDS011;42597;40.636;0.278;2023-10-19T00:40:57;0.30;;;0.30;;
56718;SDS011;42597;40.636;0.278;2023-10-19T00:43:31;0.55;;;0.43;;
56718;SDS011;42597;40.636;0.278;2023-10-19T00:46:03;0.32;;;0.28;;
56718;SDS011;42597;40.636;0.278;2023-10-19T00:48:51;0.85;;;0.40;;
56718;SDS011;42597;40.636;0.278;2023-10-19T00:54:13;0.40;;;0.40;;
56718;SDS011;42597;40.636;0.278;2023-10-19T00:56:42;0.68;;;0.40;;
56718;SDS011;42597;40.636;0.278;2023-10-19T00:59:19;1.00;;;0.50;;
56718;SDS011;42597;40.636;0.278;2023-10-19T01:01:50;0.30;;;0.30;;
56718;SDS011;42597;40.636;0.278;2023-10-19T01:04:23;0.80;;;0.47;;
56718;SDS011;42597;40.636;0.278;2023-10-19T01:06:50;0.75;;;0.45;;
56718;SDS011;42597;40.636;0.278;2023-10-19T01:09:43;0.95;;;0.57;;
56718;SDS011;42597;40.636;0.278;2023-10-19T01:12:12;1.00;;;0.60;;
56718;SDS011;42597;40.636;0.278;2023-10-19T01:15:00;0.50;;;0.40;;
56718;SDS011;42597;40.636;0.278;2023-10-19T01:17:38;0.82;;;0.47;;
56718;SDS011;42597;40.636;0.278;2023-10-19T01:20:09;0.45;;;0.40;;
56718;SDS011;42597;40.636;0.278;2023-10-19T01:22:58;1.33;;;0.55;;
56718;SDS011;42597;40.636;0.278;2023-10-19T01:28:07;0.93;;;0.65;;
56718;SDS011;42597;40.636;0.278;2023-10-19T01:30:34;1.77;;;0.73;;
56718;SDS011;42597;40.636;0.278;2023-10-19T01:33:01;0.70;;;0.40;;
56718;SDS011;42597;40.636;0.278;2023-10-19T01:35:29;1.35;;;0.60;;
56718;SDS011;42597;40.636;0.278;2023-10-19T01:38:15;1.80;;;0.55;;
56718;SDS011;42597;40.636;0.278;2023-10-19T01:40:41;1.50;;;0.60;;
56718;SDS011;42597;40.636;0.278;2023-10-19T01:43:11;0.70;;;0.43;;
56718;SDS011;42597;40.636;0.278;2023-10-19T01:45:51;0.77;;;0.45;;
56718;SDS011;42597;40.636;0.278;2023-10-19T01:48:19;1.80;;;0.90;;
56718;SDS011;42597;40.636;0.278;2023-10-19T01:50:53;0.63;;;0.52;;
56718;SDS011;42597;40.636;0.278;2023-10-19T01:53:18;1.95;;;0.50;;
56718;SDS011;42597;40.636;0.278;2023-10-19T01:55:50;2.35;;;0.65;;
56718;SDS011;42597;40.636;0.278;2023-10-19T01:58:22;1.73;;;0.52;;
56718;SDS011;42597;40.636;0.278;2023-10-19T02:00:51;0.55;;;0.45;;
56718;SDS011;42597;40.636;0.278;2023-10-19T02:03:25;0.52;;;0.40;;
56718;SDS011;42597;40.636;0.278;2023-10-19T02:06:00;0.38;;;0.20;;
56718;SDS011;42597;40.636;0.278;2023-10-19T02:08:34;2.35;;;0.70;;
56718;SDS011;42597;40.636;0.278;2023-10-19T02:11:03;2.33;;;0.63;;
56718;SDS011;42597;40.636;0.278;2023-10-19T02:13:46;0.40;;;0.40;;
56718;SDS011;42597;40.636;0.278;2023-10-19T02:16:12;1.35;;;0.60;;
56718;SDS011;42597;40.636;0.278;2023-10-19T02:18:41;0.40;;;0.40;;
56718;SDS011;42597;40.636;0.278;2023-10-19T02:21:08;1.45;;;0.60;;
56718;SDS011;42597;40.636;0.278;2023-10-19T02:23:37;1.95;;;0.68;;
56718;SDS011;42597;40.636;0.278;2023-10-19T02:26:09;1.25;;;0.65;;
56718;SDS011;42597;40.636;0.278;2023-10-19T02:28:38;1.98;;;0.45;;
56718;SDS011;42597;40.636;0.278;2023-10-19T02:31:05;0.73;;;0.40;;
56718;SDS011;42597;40.636;0.278;2023-10-19T02:33:43;0.63;;;0.40;;
56718;SDS011;42597;40.636;0.278;2023-10-19T02:36:16;1.10;;;0.63;;
56718;SDS011;42597;40.636;0.278;2023-10-19T02:38:44;0.55;;;0.30;;
56718;SDS011;42597;40.636;0.278;2023-10-19T02:41:17;0.63;;;0.47;;
56718;SDS011;42597;40.636;0.278;2023-10-19T02:43:44;1.00;;;0.60;;
56718;SDS011;42597;40.636;0.278;2023-10-19T02:46:33;1.15;;;0.50;;
56718;SDS011;42597;40.636;0.278;2023-10-19T02:49:03;2.15;;;0.65;;
56718;SDS011;42597;40.636;0.278;2023-10-19T02:51:37;0.45;;;0.35;;
56718;SDS011;42597;40.636;0.278;2023-10-19T02:54:03;1.65;;;0.73;;
56718;SDS011;42597;40.636;0.278;2023-10-19T02:56:31;0.45;;;0.40;;
56718;SDS011;42597;40.636;0.278;2023-10-19T02:58:56;1.08;;;0.65;;
56718;SDS011;42597;40.636;0.278;2023-10-19T03:01:31;0.75;;;0.43;;
56718;SDS011;42597;40.636;0.278;2023-10-19T03:03:59;0.90;;;0.60;;
56718;SDS011;42597;40.636;0.278;2023-10-19T03:06:29;4.60;;;0.63;;
56718;SDS011;42597;40.636;0.278;2023-10-19T03:08:59;1.15;;;0.60;;
56718;SDS011;42597;40.636;0.278;2023-10-19T03:11:47;2.28;;;0.70;;
56718;SDS011;42597;40.636;0.278;2023-10-19T03:14:17;2.08;;;0.60;;
56718;SDS011;42597;40.636;0.278;2023-10-19T03:16:43;1.55;;;0.63;;
56718;SDS011;42597;40.636;0.278;2023-10-19T03:19:10;1.92;;;0.65;;
56718;SDS011;42597;40.636;0.278;2023-10-19T03:21:38;2.88;;;0.40;;
56718;SDS011;42597;40.636;0.278;2023-10-19T03:24:14;0.68;;;0.40;;
56718;SDS011;42597;40.636;0.278;2023-10-19T03:26:51;3.00;;;0.77;;
56718;SDS011;42597;40.636;0.278;2023-10-19T03:29:19;1.55;;;0.55;;
56718;SDS011;42597;40.636;0.278;2023-10-19T03:31:51;0.60;;;0.32;;
56718;SDS011;42597;40.636;0.278;2023-10-19T03:34:17;0.65;;;0.40;;
56718;SDS011;42597;40.636;0.278;2023-10-19T03:36:43;1.23;;;0.60;;
56718;SDS011;42597;40.636;0.278;2023-10-19T03:39:08;0.88;;;0.43;;
56718;SDS011;42597;40.636;0.278;2023-10-19T03:41:38;1.08;;;0.40;;
56718;SDS011;42597;40.636;0.278;2023-10-19T03:46:38;4.03;;;0.90;;
56718;SDS011;42597;40.636;0.278;2023-10-19T03:49:18;1.95;;;0.73;;
56718;SDS011;42597;40.636;0.278;2023-10-19T03:51:47;0.73;;;0.40;;
56718;SDS011;42597;40.636;0.278;2023-10-19T03:54:36;1.85;;;0.77;;
56718;SDS011;42597;40.636;0.278;2023-10-19T03:57:08;1.48;;;0.45;;
56718;SDS011;42597;40.636;0.278;2023-10-19T03:59:41;1.95;;;0.90;;
56718;SDS011;42597;40.636;0.278;2023-10-19T04:02:07;2.75;;;1.13;;
56718;SDS011;42597;40.636;0.278;2023-10-19T04:04:42;2.20;;;0.65;;
56718;SDS011;42597;40.636;0.278;2023-10-19T04:07:16;1.48;;;0.40;;
56718;SDS011;42597;40.636;0.278;2023-10-19T04:09:50;2.00;;;0.57;;
56718;SDS011;42597;40.636;0.278;2023-10-19T04:12:49;2.88;;;0.82;;
56718;SDS011;42597;40.636;0.278;2023-10-19T04:15:14;1.00;;;0.47;;
56718;SDS011;42597;40.636;0.278;2023-10-19T04:17:40;1.30;;;0.75;;
56718;SDS011;42597;40.636;0.278;2023-10-19T04:20:07;1.08;;;0.50;;
56718;SDS011;42597;40.636;0.278;2023-10-19T04:22:43;1.83;;;0.57;;
56718;SDS011;42597;40.636;0.278;2023-10-19T04:25:09;0.88;;;0.30;;
56718;SDS011;42597;40.636;0.278;2023-10-19T04:27:40;1.23;;;0.68;;
56718;SDS011;42597;40.636;0.278;2023-10-19T04:30:10;1.10;;;0.73;;
56718;SDS011;42597;40.636;0.278;2023-10-19T04:32:52;2.80;;;0.90;;
56718;SDS011;42597;40.636;0.278;2023-10-19T04:35:20;3.17;;;1.13;;
56718;SDS011;42597;40.636;0.278;2023-10-19T04:37:52;3.15;;;0.95;;
56718;SDS011;42597;40.636;0.278;2023-10-19T04:40:21;1.88;;;0.70;;
56718;SDS011;42597;40.636;0.278;2023-10-19T04:42:48;0.55;;;0.50;;
56718;SDS011;42597;40.636;0.278;2023-10-19T04:45:15;3.17;;;0.65;;
56718;SDS011;42597;40.636;0.278;2023-10-19T04:47:42;0.50;;;0.35;;
56718;SDS011;42597;40.636;0.278;2023-10-19T04:50:07;2.30;;;0.68;;
56718;SDS011;42597;40.636;0.278;2023-10-19T04:52:35;1.02;;;0.50;;
56718;SDS011;42597;40.636;0.278;2023-10-19T04:55:02;0.93;;;0.52;;
56718;SDS011;42597;40.636;0.278;2023-10-19T04:57:27;1.15;;;0.70;;
56718;SDS011;42597;40.636;0.278;2023-10-19T04:59:53;3.95;;;0.93;;
56718;SDS011;42597;40.636;0.278;2023-10-19T05:02:20;1.65;;;0.77;;
56718;SDS011;42597;40.636;0.278;2023-10-19T05:04:46;5.40;;;1.02;;
56718;SDS011;42597;40.636;0.278;2023-10-19T05:07:11;0.80;;;0.50;;
56718;SDS011;42597;40.636;0.278;2023-10-19T05:09:39;1.50;;;0.75;;
56718;SDS011;42597;40.636;0.278;2023-10-19T05:12:06;2.55;;;1.55;;
56718;SDS011;42597;40.636;0.278;2023-10-19T05:14:34;0.57;;;0.43;;
56718;SDS011;42597;40.636;0.278;2023-10-19T05:17:03;2.95;;;0.80;;
56718;SDS011;42597;40.636;0.278;2023-10-19T05:19:32;2.28;;;0.63;;
56718;SDS011;42597;40.636;0.278;2023-10-19T05:22:05;0.98;;;0.55;;
56718;SDS011;42597;40.636;0.278;2023-10-19T05:24:32;2.33;;;0.90;;
56718;SDS011;42597;40.636;0.278;2023-10-19T05:26:58;1.42;;;0.93;;
56718;SDS011;42597;40.636;0.278;2023-10-19T05:29:24;3.38;;;1.17;;
56718;SDS011;42597;40.636;0.278;2023-10-19T05:31:50;9.15;;;1.95;;
56718;SDS011;42597;40.636;0.278;2023-10-19T05:34:21;2.70;;;1.10;;
56718;SDS011;42597;40.636;0.278;2023-10-19T05:36:48;2.92;;;1.30;;
56718;SDS011;42597;40.636;0.278;2023-10-19T05:39:17;5.68;;;1.60;;
56718;SDS011;42597;40.636;0.278;2023-10-19T05:41:43;1.88;;;1.08;;
56718;SDS011;42597;40.636;0.278;2023-10-19T05:44:09;5.72;;;1.48;;
56718;SDS011;42597;40.636;0.278;2023-10-19T05:46:35;1.13;;;0.60;;
56718;SDS011;42597;40.636;0.278;2023-10-19T05:49:01;1.77;;;0.50;;
56718;SDS011;42597;40.636;0.278;2023-10-19T05:51:29;0.75;;;0.47;;
56718;SDS011;42597;40.636;0.278;2023-10-19T05:53:55;1.70;;;0.68;;
56718;SDS011;42597;40.636;0.278;2023-10-19T05:56:29;1.88;;;0.73;;
56718;SDS011;42597;40.636;0.278;2023-10-19T05:58:56;1.33;;;0.65;;
56718;SDS011;42597;40.636;0.278;2023-10-19T06:01:23;1.85;;;0.73;;
56718;SDS011;42597;40.636;0.278;2023-10-19T06:03:48;1.70;;;0.60;;
56718;SDS011;42597;40.636;0.278;2023-10-19T06:06:15;3.13;;;0.90;;
56718;SDS011;42597;40.636;0.278;2023-10-19T06:08:41;1.63;;;0.57;;
56718;SDS011;42597;40.636;0.278;2023-10-19T06:11:07;2.22;;;0.93;;
56718;SDS011;42597;40.636;0.278;2023-10-19T06:13:32;2.90;;;0.80;;
56718;SDS011;42597;40.636;0.278;2023-10-19T06:15:58;1.80;;;0.52;;
56718;SDS011;42597;40.636;0.278;2023-10-19T06:18:23;2.20;;;0.60;;
56718;SDS011;42597;40.636;0.278;2023-10-19T06:20:49;3.30;;;1.35;;
56718;SDS011;42597;40.636;0.278;2023-10-19T06:23:17;2.45;;;0.50;;
56718;SDS011;42597;40.636;0.278;2023-10-19T06:25:43;3.10;;;0.80;;
56718;SDS011;42597;40.636;0.278;2023-10-19T06:28:09;5.03;;;0.98;;
56718;SDS011;42597;40.636;0.278;2023-10-19T06:30:36;3.20;;;1.08;;
56718;SDS011;42597;40.636;0.278;2023-10-19T06:33:02;10.88;;;6.90;;
56718;SDS011;42597;40.636;0.278;2023-10-19T06:35:31;11.18;;;6.80;;
56718;SDS011;42597;40.636;0.278;2023-10-19T06:37:58;7.32;;;4.38;;
56718;SDS011;42597;40.636;0.278;2023-10-19T06:40:24;7.85;;;4.43;;
56718;SDS011;42597;40.636;0.278;2023-10-19T06:42:51;5.63;;;3.05;;
56718;SDS011;42597;40.636;0.278;2023-10-19T06:45:20;8.82;;;2.50;;
56718;SDS011;42597;40.636;0.278;2023-10-19T06:47:46;8.05;;;1.83;;
56718;SDS011;42597;40.636;0.278;2023-10-19T06:50:14;4.00;;;1.25;;
56718;SDS011;42597;40.636;0.278;2023-10-19T06:52:41;4.28;;;1.00;;
56718;SDS011;42597;40.636;0.278;2023-10-19T06:55:11;4.90;;;1.48;;
56718;SDS011;42597;40.636;0.278;2023-10-19T06:57:51;2.67;;;0.95;;
56718;SDS011;42597;40.636;0.278;2023-10-19T07:00:20;3.38;;;0.90;;
56718;SDS011;42597;40.636;0.278;2023-10-19T07:02:47;4.78;;;1.20;;
56718;SDS011;42597;40.636;0.278;2023-10-19T07:05:14;2.35;;;0.85;;
56718;SDS011;42597;40.636;0.278;2023-10-19T07:07:44;1.77;;;1.00;;
56718;SDS011;42597;40.636;0.278;2023-10-19T07:10:11;4.90;;;1.27;;
56718;SDS011;42597;40.636;0.278;2023-10-19T07:12:38;2.78;;;1.00;;
56718;SDS011;42597;40.636;0.278;2023-10-19T07:15:06;2.67;;;1.60;;
56718;SDS011;42597;40.636;0.278;2023-10-19T07:17:42;3.28;;;1.00;;
56718;SDS011;42597;40.636;0.278;2023-10-19T07:20:09;3.92;;;0.80;;
56718;SDS011;42597;40.636;0.278;2023-10-19T07:22:51;3.55;;;1.52;;
56718;SDS011;42597;40.636;0.278;2023-10-19T07:25:17;5.03;;;2.22;;
56718;SDS011;42597;40.636;0.278;2023-10-19T07:27:49;9.85;;;3.20;;
56718;SDS011;42597;40.636;0.278;2023-10-19T07:30:18;4.45;;;1.83;;
56718;SDS011;42597;40.636;0.278;2023-10-19T07:32:51;4.32;;;1.98;;
56718;SDS011;42597;40.636;0.278;2023-10-19T07:35:26;5.82;;;1.85;;
56718;SDS011;42597;40.636;0.278;2023-10-19T07:40:18;5.03;;;1.33;;
56718;SDS011;42597;40.636;0.278;2023-10-19T07:42:44;9.07;;;1.92;;
56718;SDS011;42597;40.636;0.278;2023-10-19T07:45:11;6.80;;;2.33;;
56718;SDS011;42597;40.636;0.278;2023-10-19T07:47:37;8.65;;;1.63;;
56718;SDS011;42597;40.636;0.278;2023-10-19T07:50:10;4.07;;;1.70;;
56718;SDS011;42597;40.636;0.278;2023-10-19T07:52:46;9.60;;;4.82;;
56718;SDS011;42597;40.636;0.278;2023-10-19T07:55:14;11.65;;;5.75;;
56718;SDS011;42597;40.636;0.278;2023-10-19T07:57:41;6.93;;;2.55;;
56718;SDS011;42597;40.636;0.278;2023-10-19T08:00:10;10.70;;;3.60;;
56718;SDS011;42597;40.636;0.278;2023-10-19T08:02:40;4.38;;;1.85;;
56718;SDS011;42597;40.636;0.278;2023-10-19T08:05:16;5.18;;;1.70;;
56718;SDS011;42597;40.636;0.278;2023-10-19T08:07:43;4.38;;;1.60;;
56718;SDS011;42597;40.636;0.278;2023-10-19T08:10:09;8.25;;;2.22;;
56718;SDS011;42597;40.636;0.278;2023-10-19T08:12:39;10.55;;;6.47;;
56718;SDS011;42597;40.636;0.278;2023-10-19T08:15:06;11.57;;;5.47;;
56718;SDS011;42597;40.636;0.278;2023-10-19T08:17:39;7.90;;;2.97;;
56718;SDS011;42597;40.636;0.278;2023-10-19T08:20:07;9.25;;;4.70;;
56718;SDS011;42597;40.636;0.278;2023-10-19T08:22:37;8.13;;;3.67;;
56718;SDS011;42597;40.636;0.278;2023-10-19T08:25:03;16.92;;;11.18;;
56718;SDS011;42597;40.636;0.278;2023-10-19T08:27:37;5.93;;;2.92;;
56718;SDS011;42597;40.636;0.278;2023-10-19T08:30:09;41.20;;;27.58;;
56718;SDS011;42597;40.636;0.278;2023-10-19T08:32:42;3.40;;;1.30;;
56718;SDS011;42597;40.636;0.278;2023-10-19T08:35:13;13.27;;;7.57;;
56718;SDS011;42597;40.636;0.278;2023-10-19T08:37:45;31.52;;;20.33;;
56718;SDS011;42597;40.636;0.278;2023-10-19T08:40:11;20.85;;;13.68;;
56718;SDS011;42597;40.636;0.278;2023-10-19T08:42:44;23.58;;;17.30;;
56718;SDS011;42597;40.636;0.278;2023-10-19T08:45:10;7.60;;;3.08;;
56718;SDS011;42597;40.636;0.278;2023-10-19T08:50:14;10.13;;;4.43;;
56718;SDS011;42597;40.636;0.278;2023-10-19T08:52:42;7.75;;;2.63;;
56718;SDS011;42597;40.636;0.278;2023-10-19T08:55:09;7.80;;;3.22;;
56718;SDS011;42597;40.636;0.278;2023-10-19T08:57:37;28.48;;;18.73;;
56718;SDS011;42597;40.636;0.278;2023-10-19T09:00:05;12.85;;;7.85;;
56718;SDS011;42597;40.636;0.278;2023-10-19T09:02:32;20.13;;;13.50;;
56718;SDS011;42597;40.636;0.278;2023-10-19T09:04:58;9.82;;;5.70;;
56718;SDS011;42597;40.636;0.278;2023-10-19T09:07:25;12.73;;;7.68;;
56718;SDS011;42597;40.636;0.278;2023-10-19T09:09:56;11.10;;;5.50;;
56718;SDS011;42597;40.636;0.278;2023-10-19T09:12:22;8.25;;;4.15;;
56718;SDS011;42597;40.636;0.278;2023-10-19T09:14:48;9.35;;;5.00;;
56718;SDS011;42597;40.636;0.278;2023-10-19T09:17:15;4.70;;;2.58;;
56718;SDS011;42597;40.636;0.278;2023-10-19T09:19:43;9.82;;;6.43;;
56718;SDS011;42597;40.636;0.278;2023-10-19T09:22:13;10.45;;;6.50;;
56718;SDS011;42597;40.636;0.278;2023-10-19T09:24:51;11.32;;;6.28;;
56718;SDS011;42597;40.636;0.278;2023-10-19T09:27:21;11.98;;;6.30;;
56718;SDS011;42597;40.636;0.278;2023-10-19T09:29:48;32.13;;;17.02;;
56718;SDS011;42597;40.636;0.278;2023-10-19T09:32:15;36.97;;;17.40;;
56718;SDS011;42597;40.636;0.278;2023-10-19T09:34:40;22.52;;;13.15;;
56718;SDS011;42597;40.636;0.278;2023-10-19T09:37:09;15.38;;;9.50;;
56718;SDS011;42597;40.636;0.278;2023-10-19T09:39:35;12.57;;;7.65;;
56718;SDS011;42597;40.636;0.278;2023-10-19T09:44:41;15.07;;;8.77;;
56718;SDS011;42597;40.636;0.278;2023-10-19T09:47:09;13.45;;;8.40;;
56718;SDS011;42597;40.636;0.278;2023-10-19T09:49:38;17.30;;;8.68;;
56718;SDS011;42597;40.636;0.278;2023-10-19T09:52:04;14.48;;;9.52;;
56718;SDS011;42597;40.636;0.278;2023-10-19T09:54:38;17.15;;;9.48;;
56718;SDS011;42597;40.636;0.278;2023-10-19T09:57:14;20.38;;;10.43;;
56718;SDS011;42597;40.636;0.278;2023-10-19T09:59:46;14.88;;;8.18;;
56718;SDS011;42597;40.636;0.278;2023-10-19T10:02:16;17.10;;;8.82;;
56718;SDS011;42597;40.636;0.278;2023-10-19T10:04:47;15.73;;;7.68;;
56718;SDS011;42597;40.636;0.278;2023-10-19T10:07:14;13.05;;;7.28;;
56718;SDS011;42597;40.636;0.278;2023-10-19T10:09:41;9.10;;;3.25;;
56718;SDS011;42597;40.636;0.278;2023-10-19T10:12:23;9.50;;;3.35;;
56718;SDS011;42597;40.636;0.278;2023-10-19T10:17:24;11.98;;;4.30;;
56718;SDS011;42597;40.636;0.278;2023-10-19T10:19:56;10.15;;;4.80;;
56718;SDS011;42597;40.636;0.278;2023-10-19T10:22:39;12.90;;;4.18;;
56718;SDS011;42597;40.636;0.278;2023-10-19T10:25:06;12.95;;;4.88;;
56718;SDS011;42597;40.636;0.278;2023-10-19T10:27:35;18.90;;;10.57;;
56718;SDS011;42597;40.636;0.278;2023-10-19T10:30:01;15.63;;;7.68;;
56718;SDS011;42597;40.636;0.278;2023-10-19T10:32:51;13.88;;;7.43;;
56718;SDS011;42597;40.636;0.278;2023-10-19T10:38:05;28.30;;;18.73;;
56718;SDS011;42597;40.636;0.278;2023-10-19T10:40:43;80.65;;;39.33;;
56718;SDS011;42597;40.636;0.278;2023-10-19T10:43:13;67.50;;;37.17;;
56718;SDS011;42597;40.636;0.278;2023-10-19T10:45:40;43.95;;;24.33;;
56718;SDS011;42597;40.636;0.278;2023-10-19T10:48:12;29.92;;;15.38;;
56718;SDS011;42597;40.636;0.278;2023-10-19T10:50:38;15.68;;;7.20;;
56718;SDS011;42597;40.636;0.278;2023-10-19T10:53:04;19.65;;;7.55;;
56718;SDS011;42597;40.636;0.278;2023-10-19T10:55:30;22.27;;;7.75;;
56718;SDS011;42597;40.636;0.278;2023-10-19T10:57:57;20.50;;;8.20;;
56718;SDS011;42597;40.636;0.278;2023-10-19T11:00:24;16.98;;;8.35;;
56718;SDS011;42597;40.636;0.278;2023-10-19T11:03:00;19.35;;;9.25;;
56718;SDS011;42597;40.636;0.278;2023-10-19T11:05:29;16.75;;;8.27;;
56718;SDS011;42597;40.636;0.278;2023-10-19T11:08:18;13.90;;;5.72;;
56718;SDS011;42597;40.636;0.278;2023-10-19T11:10:47;13.88;;;6.03;;
56718;SDS011;42597;40.636;0.278;2023-10-19T11:13:16;14.10;;;5.75;;
56718;SDS011;42597;40.636;0.278;2023-10-19T11:15:52;16.67;;;6.47;;
56718;SDS011;42597;40.636;0.278;2023-10-19T11:21:14;10.18;;;4.70;;
56718;SDS011;42597;40.636;0.278;2023-10-19T11:26:09;13.00;;;4.78;;
56718;SDS011;42597;40.636;0.278;2023-10-19T11:28:36;9.85;;;4.75;;
56718;SDS011;42597;40.636;0.278;2023-10-19T11:31:23;23.75;;;9.35;;
56718;SDS011;42597;40.636;0.278;2023-10-19T11:33:50;10.02;;;4.25;;
56718;SDS011;42597;40.636;0.278;2023-10-19T11:36:17;18.35;;;5.05;;
56718;SDS011;42597;40.636;0.278;2023-10-19T11:38:44;10.70;;;3.97;;
56718;SDS011;42597;40.636;0.278;2023-10-19T11:41:11;12.55;;;4.25;;
56718;SDS011;42597;40.636;0.278;2023-10-19T11:43:41;12.30;;;6.03;;
56718;SDS011;42597;40.636;0.278;2023-10-19T11:46:09;10.10;;;5.85;;
56718;SDS011;42597;40.636;0.278;2023-10-19T11:48:36;11.00;;;5.80;;
56718;SDS011;42597;40.636;0.278;2023-10-19T11:51:03;12.95;;;5.15;;
56718;SDS011;42597;40.636;0.278;2023-10-19T11:53:30;15.80;;;6.43;;
56718;SDS011;42597;40.636;0.278;2023-10-19T11:58:24;14.80;;;6.75;;
56718;SDS011;42597;40.636;0.278;2023-10-19T12:00:50;18.20;;;8.02;;
56718;SDS011;42597;40.636;0.278;2023-10-19T12:03:16;25.90;;;8.43;;
56718;SDS011;42597;40.636;0.278;2023-10-19T12:05:44;12.77;;;5.72;;
56718;SDS011;42597;40.636;0.278;2023-10-19T12:08:09;12.55;;;6.22;;
56718;SDS011;42597;40.636;0.278;2023-10-19T12:10:35;13.23;;;5.72;;
56718;SDS011;42597;40.636;0.278;2023-10-19T12:13:02;8.35;;;4.85;;
56718;SDS011;42597;40.636;0.278;2023-10-19T12:15:29;11.30;;;4.28;;
56718;SDS011;42597;40.636;0.278;2023-10-19T12:17:55;10.07;;;3.60;;
56718;SDS011;42597;40.636;0.278;2023-10-19T12:20:21;5.82;;;2.70;;
56718;SDS011;42597;40.636;0.278;2023-10-19T12:22:49;11.77;;;3.30;;
56718;SDS011;42597;40.636;0.278;2023-10-19T12:25:19;14.90;;;5.55;;
56718;SDS011;42597;40.636;0.278;2023-10-19T12:27:54;13.45;;;5.10;;
56718;SDS011;42597;40.636;0.278;2023-10-19T12:30:20;7.90;;;4.38;;
56718;SDS011;42597;40.636;0.278;2023-10-19T12:32:47;11.68;;;5.10;;
56718;SDS011;42597;40.636;0.278;2023-10-19T12:35:14;9.32;;;3.90;;
56718;SDS011;42597;40.636;0.278;2023-10-19T12:37:43;14.98;;;6.65;;
56718;SDS011;42597;40.636;0.278;2023-10-19T12:40:14;7.50;;;4.32;;
56718;SDS011;42597;40.636;0.278;2023-10-19T12:42:52;11.18;;;4.85;;
56718;SDS011;42597;40.636;0.278;2023-10-19T12:45:22;11.25;;;6.05;;
56718;SDS011;42597;40.636;0.278;2023-10-19T12:47:49;4.05;;;1.70;;
56718;SDS011;42597;40.636;0.278;2023-10-19T12:50:18;7.03;;;2.88;;
56718;SDS011;42597;40.636;0.278;2023-10-19T12:52:47;8.82;;;4.63;;
56718;SDS011;42597;40.636;0.278;2023-10-19T12:55:14;5.15;;;2.45;;
56718;SDS011;42597;40.636;0.278;2023-10-19T12:57:41;10.50;;;6.50;;
56718;SDS011;42597;40.636;0.278;2023-10-19T13:00:07;11.43;;;4.53;;
56718;SDS011;42597;40.636;0.278;2023-10-19T13:02:54;5.93;;;2.60;;
56718;SDS011;42597;40.636;0.278;2023-10-19T13:05:27;5.45;;;2.00;;
56718;SDS011;42597;40.636;0.278;2023-10-19T13:07:53;4.22;;;1.50;;
56718;SDS011;42597;40.636;0.278;2023-10-19T13:10:23;4.55;;;2.08;;
56718;SDS011;42597;40.636;0.278;2023-10-19T13:12:53;8.82;;;1.92;;
56718;SDS011;42597;40.636;0.278;2023-10-19T13:15:19;10.80;;;3.60;;
56718;SDS011;42597;40.636;0.278;2023-10-19T13:17:47;2.95;;;1.08;;
56718;SDS011;42597;40.636;0.278;2023-10-19T13:20:13;7.60;;;2.80;;
56718;SDS011;42597;40.636;0.278;2023-10-19T13:22:43;9.20;;;2.85;;
56718;SDS011;42597;40.636;0.278;2023-10-19T13:25:09;9.68;;;3.25;;
56718;SDS011;42597;40.636;0.278;2023-10-19T13:27:38;7.50;;;2.83;;
56718;SDS011;42597;40.636;0.278;2023-10-19T13:30:08;8.50;;;4.15;;
56718;SDS011;42597;40.636;0.278;2023-10-19T13:32:37;7.93;;;3.53;;
56718;SDS011;42597;40.636;0.278;2023-10-19T13:35:05;8.10;;;1.35;;
56718;SDS011;42597;40.636;0.278;2023-10-19T13:37:32;3.80;;;1.50;;
56718;SDS011;42597;40.636;0.278;2023-10-19T13:39:57;5.75;;;2.33;;
56718;SDS011;42597;40.636;0.278;2023-10-19T13:42:24;7.93;;;2.83;;
56718;SDS011;42597;40.636;0.278;2023-10-19T13:44:50;6.00;;;2.45;;
56718;SDS011;42597;40.636;0.278;2023-10-19T13:47:15;7.70;;;2.03;;
56718;SDS011;42597;40.636;0.278;2023-10-19T13:49:41;8.30;;;4.30;;
56718;SDS011;42597;40.636;0.278;2023-10-19T13:52:07;8.57;;;2.20;;
56718;SDS011;42597;40.636;0.278;2023-10-19T13:54:36;6.80;;;4.15;;
56718;SDS011;42597;40.636;0.278;2023-10-19T13:57:02;8.43;;;3.92;;
56718;SDS011;42597;40.636;0.278;2023-10-19T13:59:28;9.80;;;2.35;;
56718;SDS011;42597;40.636;0.278;2023-10-19T14:01:54;6.25;;;1.95;;
56718;SDS011;42597;40.636;0.278;2023-10-19T14:04:20;11.05;;;3.10;;
56718;SDS011;42597;40.636;0.278;2023-10-19T14:06:46;7.32;;;3.20;;
56718;SDS011;42597;40.636;0.278;2023-10-19T14:09:14;10.55;;;2.63;;
56718;SDS011;42597;40.636;0.278;2023-10-19T14:11:42;7.88;;;4.13;;
56718;SDS011;42597;40.636;0.278;2023-10-19T14:14:07;6.45;;;3.38;;
56718;SDS011;42597;40.636;0.278;2023-10-19T14:16:36;9.80;;;3.33;;
56718;SDS011;42597;40.636;0.278;2023-10-19T14:19:01;3.83;;;1.42;;
56718;SDS011;42597;40.636;0.278;2023-10-19T14:21:28;8.75;;;2.85;;
56718;SDS011;42597;40.636;0.278;2023-10-19T14:23:55;7.13;;;1.95;;
56718;SDS011;42597;40.636;0.278;2023-10-19T14:26:20;6.35;;;1.55;;
56718;SDS011;42597;40.636;0.278;2023-10-19T14:28:46;2.80;;;1.00;;
56718;SDS011;42597;40.636;0.278;2023-10-19T14:31:12;4.35;;;1.20;;
56718;SDS011;42597;40.636;0.278;2023-10-19T14:33:38;4.15;;;1.13;;
56718;SDS011;42597;40.636;0.278;2023-10-19T14:36:04;6.97;;;2.47;;
56718;SDS011;42597;40.636;0.278;2023-10-19T14:38:31;6.70;;;3.22;;
56718;SDS011;42597;40.636;0.278;2023-10-19T14:40:56;9.18;;;3.40;;
56718;SDS011;42597;40.636;0.278;2023-10-19T14:43:23;10.88;;;4.35;;
56718;SDS011;42597;40.636;0.278;2023-10-19T14:45:50;12.20;;;2.60;;
56718;SDS011;42597;40.636;0.278;2023-10-19T14:48:16;7.28;;;3.00;;
56718;SDS011;42597;40.636;0.278;2023-10-19T14:50:44;6.00;;;2.53;;
56718;SDS011;42597;40.636;0.278;2023-10-19T14:53:10;7.25;;;3.22;;
56718;SDS011;42597;40.636;0.278;2023-10-19T14:55:37;14.20;;;2.97;;
56718;SDS011;42597;40.636;0.278;2023-10-19T14:58:03;11.05;;;2.78;;
56718;SDS011;42597;40.636;0.278;2023-10-19T15:00:31;6.65;;;3.47;;
56718;SDS011;42597;40.636;0.278;2023-10-19T15:03:03;6.18;;;2.53;;
56718;SDS011;42597;40.636;0.278;2023-10-19T15:05:32;13.10;;;3.33;;
56718;SDS011;42597;40.636;0.278;2023-10-19T15:08:02;7.95;;;2.67;;
56718;SDS011;42597;40.636;0.278;2023-10-19T15:10:31;11.43;;;3.25;;
56718;SDS011;42597;40.636;0.278;2023-10-19T15:12:58;17.00;;;2.95;;
56718;SDS011;42597;40.636;0.278;2023-10-19T15:15:28;10.20;;;3.40;;
56718;SDS011;42597;40.636;0.278;2023-10-19T15:17:54;11.35;;;3.22;;
56718;SDS011;42597;40.636;0.278;2023-10-19T15:20:21;11.52;;;2.70;;
56718;SDS011;42597;40.636;0.278;2023-10-19T15:22:50;6.93;;;2.50;;
56718;SDS011;42597;40.636;0.278;2023-10-19T15:25:16;12.18;;;3.15;;